Time;durP1;ratioP1;P1;durP2;ratioP2;P2;SDS_P1;SDS_P2;PMS_P1;PMS_P2;Temp;Humidity;BMP_temperature;BMP_pressure;BME280_temperature;BME280_humidity;BME280_pressure;Samples;Min_cycle;Max_cycle;Signal;HPM_P1;HPM_P2
2024/03/29 00:02:01;;;;;;;4.33;0.50;;;9.60;76.90;;;;;;5013782;28;20030;-77
2024/03/29 00:04:27;;;;;;;3.50;0.43;;;9.70;77.00;;;;;;5013746;28;20034;-77
2024/03/29 00:06:52;;;;;;;2.77;0.50;;;9.70;77.00;;;;;;5013940;28;20018;-77
2024/03/29 00:09:18;;;;;;;4.53;0.60;;;9.70;77.20;;;;;;5013585;28;20504;-77
2024/03/29 00:11:44;;;;;;;3.83;0.50;;;9.60;77.30;;;;;;5013144;28;20026;-77
2024/03/29 00:14:09;;;;;;;5.40;1.00;;;9.60;77.40;;;;;;5013197;28;20030;-78
2024/03/29 00:16:35;;;;;;;5.17;0.60;;;9.60;77.60;;;;;;5013525;28;20076;-77
2024/03/29 00:19:00;;;;;;;4.90;1.17;;;9.60;77.70;;;;;;5028728;28;20040;-77
2024/03/29 00:21:26;;;;;;;2.00;0.40;;;9.50;77.90;;;;;;5028485;28;20024;-77
2024/03/29 00:23:52;;;;;;;5.00;0.50;;;9.50;77.90;;;;;;5013516;28;20498;-77
2024/03/29 00:26:18;;;;;;;1.70;0.43;;;9.50;78.10;;;;;;5012017;28;20160;-77
2024/03/29 00:28:43;;;;;;;2.80;0.60;;;9.50;78.20;;;;;;5013201;28;20112;-77
2024/03/29 00:31:09;;;;;;;6.10;0.60;;;9.50;78.30;;;;;;5012874;28;20034;-77
2024/03/29 00:33:35;;;;;;;6.97;0.53;;;9.40;78.30;;;;;;5013864;28;20053;-77
2024/03/29 00:36:01;;;;;;;3.90;0.87;;;9.40;78.30;;;;;;5013873;28;20032;-77
2024/03/29 00:38:26;;;;;;;2.23;0.43;;;9.40;78.40;;;;;;5012951;28;20026;-77
2024/03/29 00:40:52;;;;;;;3.63;0.53;;;9.40;78.50;;;;;;5013679;28;20022;-77
2024/03/29 00:43:17;;;;;;;2.63;0.50;;;9.40;78.60;;;;;;5028029;28;20034;-77
2024/03/29 00:45:43;;;;;;;6.17;0.60;;;9.40;78.50;;;;;;5012321;28;20363;-77
2024/03/29 00:48:09;;;;;;;3.90;0.60;;;9.40;78.60;;;;;;5012479;28;20033;-77
2024/03/29 00:50:37;;;;;;;5.77;0.50;;;9.40;78.50;;;;;;5013133;28;20393;-77
2024/03/29 00:53:04;;;;;;;2.53;0.50;;;9.40;78.40;;;;;;5013079;28;20030;-77
2024/03/29 00:55:30;;;;;;;6.33;0.70;;;9.50;78.40;;;;;;5012622;28;20027;-76
2024/03/29 00:57:55;;;;;;;4.67;0.47;;;9.40;78.40;;;;;;5013019;28;20060;-77
2024/03/29 01:00:21;;;;;;;2.87;0.60;;;9.50;78.40;;;;;;5013129;28;20385;-77
2024/03/29 01:02:46;;;;;;;8.67;0.80;;;9.50;78.50;;;;;;5013115;28;20026;-77
2024/03/29 01:05:12;;;;;;;4.07;0.73;;;9.50;78.20;;;;;;5012788;28;20508;-77
2024/03/29 01:07:40;;;;;;;4.87;0.50;;;9.50;78.10;;;;;;5013135;28;20105;-77
2024/03/29 01:10:07;;;;;;;2.60;0.50;;;9.50;78.10;;;;;;5012499;28;20069;-76
2024/03/29 01:12:33;;;;;;;2.00;0.40;;;9.50;78.10;;;;;;5012798;28;20030;-76
2024/03/29 01:14:59;;;;;;;7.53;0.60;;;9.50;78.10;;;;;;5028122;28;20028;-76
2024/03/29 01:17:25;;;;;;;4.13;0.50;;;9.50;78.10;;;;;;5027843;28;20068;-77
2024/03/29 01:19:50;;;;;;;3.03;0.40;;;9.50;78.10;;;;;;5012991;28;20105;-77
2024/03/29 01:22:16;;;;;;;2.50;0.40;;;9.50;78.10;;;;;;5013009;28;20033;-77
2024/03/29 01:24:41;;;;;;;2.30;0.37;;;9.50;78.20;;;;;;5012354;28;20054;-76
2024/03/29 01:27:07;;;;;;;4.90;0.77;;;9.50;78.20;;;;;;5012878;28;20474;-77
2024/03/29 01:29:33;;;;;;;2.70;0.40;;;9.50;78.10;;;;;;5027986;28;20030;-77
2024/03/29 01:31:58;;;;;;;2.53;0.50;;;9.40;78.20;;;;;;5012052;28;20030;-77
2024/03/29 01:34:24;;;;;;;2.70;0.50;;;9.40;78.70;;;;;;5027778;28;20018;-76
2024/03/29 01:36:50;;;;;;;2.97;0.63;;;9.30;78.10;;;;;;5012449;28;20045;-77
2024/03/29 01:39:18;;;;;;;4.73;0.60;;;9.40;78.20;;;;;;5027468;28;20547;-77
2024/03/29 01:41:44;;;;;;;3.80;0.53;;;9.50;78.30;;;;;;5027847;28;20026;-76
2024/03/29 01:44:10;;;;;;;3.60;0.87;;;9.40;78.30;;;;;;5012760;28;20482;-76
2024/03/29 01:46:36;;;;;;;2.70;0.40;;;9.40;78.30;;;;;;5012512;28;20379;-77
2024/03/29 01:49:03;;;;;;;3.70;0.50;;;9.40;78.30;;;;;;5027763;28;20104;-77
2024/03/29 01:51:30;;;;;;;4.20;0.60;;;9.40;78.30;;;;;;5012853;28;20425;-77
2024/03/29 01:53:56;;;;;;;3.77;0.50;;;9.40;78.30;;;;;;5029161;28;20049;-77
2024/03/29 01:56:22;;;;;;;2.50;0.40;;;9.40;78.40;;;;;;5016118;28;20026;-76
2024/03/29 01:58:51;;;;;;;3.47;0.60;;;9.40;78.40;;;;;;5016181;28;20434;-77
2024/03/29 02:01:18;;;;;;;4.77;0.60;;;9.40;78.40;;;;;;5016239;28;20047;-77
2024/03/29 02:03:43;;;;;;;8.10;0.70;;;9.40;78.30;;;;;;5016313;28;20121;-77
2024/03/29 02:06:10;;;;;;;4.67;0.50;;;9.30;78.20;;;;;;5031141;28;20465;-77
2024/03/29 02:08:36;;;;;;;1.17;0.30;;;9.30;78.40;;;;;;5015479;28;20017;-77
2024/03/29 02:11:03;;;;;;;4.10;0.60;;;9.40;78.50;;;;;;5015974;28;20105;-77
2024/03/29 02:13:29;;;;;;;2.07;0.57;;;9.40;78.60;;;;;;5015984;28;20537;-77
2024/03/29 02:15:55;;;;;;;4.63;0.60;;;9.40;78.60;;;;;;5015633;28;20105;-77
2024/03/29 02:18:20;;;;;;;4.03;0.70;;;9.30;78.50;;;;;;5015755;28;20113;-76
2024/03/29 02:20:46;;;;;;;2.67;0.50;;;9.30;78.60;;;;;;5015291;28;20026;-77
2024/03/29 02:23:17;;;;;;;2.63;0.40;;;9.30;78.70;;;;;;5015668;28;20026;-77
2024/03/29 02:25:43;;;;;;;4.67;0.53;;;9.30;78.70;;;;;;5015961;28;20026;-77
2024/03/29 02:28:09;;;;;;;2.17;0.40;;;9.30;78.70;;;;;;5030843;28;20513;-77
2024/03/29 02:30:35;;;;;;;3.93;0.60;;;9.30;78.60;;;;;;5015227;28;20026;-77
2024/03/29 02:33:01;;;;;;;2.23;0.50;;;9.30;78.60;;;;;;5014861;28;20030;-76
2024/03/29 02:35:27;;;;;;;5.53;0.50;;;9.40;78.50;;;;;;5030233;28;20022;-77
2024/03/29 02:37:53;;;;;;;2.43;0.47;;;9.30;78.30;;;;;;5030483;28;20159;-77
2024/03/29 02:40:19;;;;;;;4.90;0.50;;;9.40;78.50;;;;;;5015428;28;20124;-77
2024/03/29 02:42:45;;;;;;;2.73;0.40;;;9.40;78.50;;;;;;5015308;28;20081;-77
2024/03/29 02:45:11;;;;;;;2.80;0.37;;;9.50;78.50;;;;;;5014990;28;20455;-76
2024/03/29 02:47:38;;;;;;;2.90;0.50;;;9.50;78.30;;;;;;5030183;28;20501;-76
2024/03/29 02:50:05;;;;;;;2.03;0.40;;;9.50;78.30;;;;;;5014799;28;20084;-77
2024/03/29 02:52:30;;;;;;;3.80;0.50;;;9.50;78.20;;;;;;5015263;28;20026;-77
2024/03/29 02:54:56;;;;;;;2.67;0.50;;;9.60;78.20;;;;;;5014808;28;20026;-76
2024/03/29 02:57:22;;;;;;;2.80;0.50;;;9.60;78.20;;;;;;5014894;28;20105;-77
2024/03/29 02:59:47;;;;;;;3.87;0.60;;;9.60;78.10;;;;;;5015105;28;20061;-77
2024/03/29 03:02:13;;;;;;;5.10;0.50;;;9.60;78.30;;;;;;5014922;28;20030;-77
2024/03/29 03:04:38;;;;;;;4.23;0.50;;;9.60;78.20;;;;;;5028883;28;20041;-77
2024/03/29 03:12:32;;;;;;;3.65;0.43;;;9.70;78.10;;;;;;5014704;28;20041;-77
2024/03/29 03:14:58;;;;;;;5.10;0.50;;;9.70;78.10;;;;;;5014484;28;20029;-77
2024/03/29 03:17:26;;;;;;;4.03;0.60;;;9.80;78.20;;;;;;5014323;28;20121;-76
2024/03/29 03:19:52;;;;;;;2.73;0.60;;;9.80;78.30;;;;;;5013162;28;20026;-77
2024/03/29 03:22:18;;;;;;;1.13;0.20;;;9.80;78.30;;;;;;5014621;28;20117;-77
2024/03/29 03:24:43;;;;;;;5.03;0.47;;;9.80;78.90;;;;;;5014335;28;20110;-77
2024/03/29 03:27:09;;;;;;;3.80;0.40;;;9.80;78.30;;;;;;5029342;28;20061;-77
2024/03/29 03:29:35;;;;;;;4.10;0.43;;;9.80;78.30;;;;;;5014156;28;20026;-77
2024/03/29 03:32:00;;;;;;;3.87;1.03;;;9.90;78.20;;;;;;5014146;28;20037;-77
2024/03/29 03:34:27;;;;;;;5.03;0.60;;;9.90;78.20;;;;;;5014363;28;20079;-77
2024/03/29 03:36:52;;;;;;;1.23;0.40;;;9.90;78.20;;;;;;5014025;28;20057;-77
2024/03/29 03:39:18;;;;;;;2.27;0.40;;;9.90;78.30;;;;;;5014319;28;20078;-77
2024/03/29 03:41:43;;;;;;;3.47;0.60;;;9.90;78.20;;;;;;5014091;28;20030;-77
2024/03/29 03:44:09;;;;;;;5.27;0.60;;;9.90;78.10;;;;;;5012939;28;20029;-77
2024/03/29 03:46:34;;;;;;;3.73;0.50;;;9.90;78.30;;;;;;5013659;28;20402;-78
2024/03/29 03:49:00;;;;;;;8.10;0.47;;;9.90;78.30;;;;;;5013555;28;20045;-77
2024/03/29 03:51:26;;;;;;;2.87;0.47;;;9.90;79.00;;;;;;5014046;28;20021;-77
2024/03/29 03:53:51;;;;;;;2.37;0.40;;;10.00;78.80;;;;;;5014024;28;20022;-77
2024/03/29 03:56:17;;;;;;;2.07;0.30;;;10.00;79.20;;;;;;5029009;28;20030;-78
2024/03/29 03:58:44;;;;;;;5.27;0.80;;;9.90;79.70;;;;;;5013836;28;20022;-76
2024/03/29 04:01:10;;;;;;;3.90;0.63;;;9.90;80.60;;;;;;5013856;28;20109;-77
2024/03/29 04:03:35;;;;;;;4.40;0.40;;;9.90;81.00;;;;;;5013632;28;20512;-78
2024/03/29 04:06:05;;;;;;;4.13;0.40;;;9.80;81.60;;;;;;5013671;28;20109;-78
2024/03/29 04:08:30;;;;;;;3.60;0.40;;;9.80;82.00;;;;;;5013410;28;20101;-77
2024/03/29 04:10:56;;;;;;;3.50;0.30;;;9.80;82.70;;;;;;5013693;28;20030;-77
2024/03/29 04:13:22;;;;;;;6.60;0.47;;;9.80;83.00;;;;;;5013429;28;20060;-77
2024/03/29 04:15:48;;;;;;;1.50;0.40;;;9.70;83.40;;;;;;5013433;28;20032;-78
2024/03/29 04:18:14;;;;;;;1.50;0.30;;;9.70;84.30;;;;;;5028458;28;20382;-77
2024/03/29 04:20:40;;;;;;;2.23;0.37;;;9.70;84.50;;;;;;5013324;28;20096;-77
2024/03/29 04:23:06;;;;;;;2.30;0.40;;;9.70;84.90;;;;;;5013312;28;20026;-77
2024/03/29 04:25:32;;;;;;;1.37;0.30;;;9.60;85.40;;;;;;5013335;28;20032;-77
2024/03/29 04:27:58;;;;;;;3.20;0.30;;;9.50;85.90;;;;;;5013308;28;20065;-77
2024/03/29 04:30:24;;;;;;;1.33;0.30;;;9.60;86.40;;;;;;5028306;28;20033;-79
2024/03/29 04:32:50;;;;;;;2.53;0.30;;;9.50;86.40;;;;;;5028124;28;20025;-79
2024/03/29 04:35:16;;;;;;;2.77;0.30;;;9.50;86.80;;;;;;5028383;28;20478;-78
2024/03/29 04:37:41;;;;;;;1.30;0.30;;;9.50;86.90;;;;;;5013160;28;20030;-78
2024/03/29 04:40:08;;;;;;;1.40;0.30;;;9.40;87.20;;;;;;5013204;28;20512;-79
2024/03/29 04:42:35;;;;;;;3.03;0.43;;;9.40;87.70;;;;;;5012946;28;20437;-78
2024/03/29 04:45:01;;;;;;;2.30;0.30;;;9.30;87.90;;;;;;5014020;28;20436;-80
2024/03/29 04:47:27;;;;;;;1.63;0.30;;;9.40;88.10;;;;;;5012931;28;20120;-79
2024/03/29 04:49:54;;;;;;;1.50;0.40;;;9.30;88.30;;;;;;5012942;28;20440;-79
2024/03/29 04:52:20;;;;;;;1.73;0.30;;;9.30;88.30;;;;;;5013265;28;20343;-80
2024/03/29 04:54:45;;;;;;;1.77;0.30;;;9.30;88.70;;;;;;5028458;28;20022;-80
2024/03/29 04:57:12;;;;;;;2.93;0.40;;;9.30;89.30;;;;;;5013087;28;20456;-79
2024/03/29 04:59:38;;;;;;;2.40;0.30;;;9.30;89.40;;;;;;5013310;28;20042;-80
2024/03/29 05:02:04;;;;;;;1.57;0.30;;;9.20;89.30;;;;;;5016375;28;20021;-80
2024/03/29 05:04:30;;;;;;;1.00;0.30;;;9.20;89.40;;;;;;5015150;28;20036;-80
2024/03/29 05:06:59;;;;;;;2.20;0.33;;;9.20;89.40;;;;;;5029216;28;20055;-78
2024/03/29 05:09:26;;;;;;;3.40;0.20;;;9.20;89.40;;;;;;5031059;28;20428;-81
2024/03/29 05:11:53;;;;;;;4.90;0.37;;;9.20;89.70;;;;;;5032199;28;20049;-79
2024/03/29 05:14:22;;;;;;;4.30;0.50;;;9.20;90.10;;;;;;5032433;28;20117;-80
2024/03/29 05:16:48;;;;;;;2.20;0.40;;;9.20;90.30;;;;;;5032458;28;20029;-80
2024/03/29 05:19:15;;;;;;;1.83;0.47;;;9.20;90.60;;;;;;5032661;28;20032;-80
2024/03/29 05:21:42;;;;;;;2.10;0.40;;;9.10;90.60;;;;;;5032566;28;20021;-80
2024/03/29 05:24:08;;;;;;;2.23;0.50;;;9.10;90.70;;;;;;5032656;28;20029;-82
2024/03/29 05:26:34;;;;;;;3.20;0.43;;;9.10;90.60;;;;;;5032298;28;20029;-81
2024/03/29 05:29:03;;;;;;;2.80;0.60;;;9.10;90.90;;;;;;5034668;28;20029;-80
2024/03/29 05:31:31;;;;;;;1.57;0.30;;;9.10;91.10;;;;;;5036124;28;20029;-80
2024/03/29 05:33:57;;;;;;;4.87;0.40;;;9.10;91.10;;;;;;5036518;28;20032;-80
2024/03/29 05:36:23;;;;;;;1.43;0.30;;;9.10;91.10;;;;;;5036505;28;20022;-80
2024/03/29 05:38:49;;;;;;;2.47;0.50;;;9.00;91.00;;;;;;5035950;28;20515;-80
2024/03/29 05:41:15;;;;;;;4.97;0.93;;;9.00;91.30;;;;;;5035955;28;20028;-80
2024/03/29 05:43:41;;;;;;;3.50;0.60;;;9.00;91.50;;;;;;5035897;28;20021;-80
2024/03/29 05:46:06;;;;;;;3.43;0.70;;;9.00;91.70;;;;;;5035974;28;20117;-80
2024/03/29 05:48:32;;;;;;;5.00;0.40;;;9.00;91.70;;;;;;5036172;28;20477;-81
2024/03/29 05:50:58;;;;;;;1.47;0.40;;;9.00;91.70;;;;;;5032605;28;20032;-80
2024/03/29 05:53:24;;;;;;;1.80;0.47;;;9.00;92.00;;;;;;5029421;28;20026;-80
2024/03/29 05:55:51;;;;;;;2.03;0.30;;;9.00;92.30;;;;;;5024621;28;20026;-81
2024/03/29 05:58:20;;;;;;;1.80;0.77;;;8.90;91.90;;;;;;5035590;28;20033;-81
2024/03/29 06:00:46;;;;;;;2.10;0.43;;;8.90;92.10;;;;;;5035996;28;20025;-80
2024/03/29 06:03:12;;;;;;;2.33;0.40;;;8.90;92.30;;;;;;5035470;28;20022;-80
2024/03/29 06:05:40;;;;;;;2.30;0.40;;;9.00;92.40;;;;;;5035583;28;20041;-81
2024/03/29 06:08:07;;;;;;;5.10;0.47;;;8.80;92.40;;;;;;5035411;28;20048;-80
2024/03/29 06:10:32;;;;;;;2.60;0.30;;;8.90;92.60;;;;;;5035466;28;20022;-80
2024/03/29 06:13:06;;;;;;;1.20;0.20;;;8.90;92.80;;;;;;5035215;28;20033;-80
2024/03/29 06:18:18;;;;;;;2.37;0.40;;;9.00;93.10;;;;;;5035626;28;20086;-80
2024/03/29 06:20:44;;;;;;;2.07;0.40;;;8.90;93.10;;;;;;5035191;28;20025;-80
2024/03/29 06:23:10;;;;;;;7.07;0.50;;;8.90;93.20;;;;;;5035212;28;20022;-80
2024/03/29 06:25:36;;;;;;;3.07;0.63;;;8.90;93.20;;;;;;5035222;28;20488;-79
2024/03/29 06:28:01;;;;;;;3.53;0.50;;;8.90;93.20;;;;;;5035252;28;20044;-80
2024/03/29 06:30:27;;;;;;;1.20;0.40;;;8.90;93.20;;;;;;5035544;28;20040;-80
2024/03/29 06:32:52;;;;;;;0.87;0.40;;;8.90;93.30;;;;;;5034786;28;20021;-80
2024/03/29 06:35:21;;;;;;;1.67;0.40;;;8.90;93.40;;;;;;5034986;28;20035;-79
2024/03/29 06:37:47;;;;;;;1.90;0.40;;;9.00;93.50;;;;;;5035270;28;20025;-80
2024/03/29 06:40:13;;;;;;;1.27;0.30;;;9.00;93.70;;;;;;5032584;28;20026;-79
2024/03/29 06:42:39;;;;;;;1.53;0.30;;;9.00;93.80;;;;;;5034990;28;20095;-79
2024/03/29 06:45:05;;;;;;;2.10;0.37;;;9.00;94.00;;;;;;5035620;28;20032;-80
2024/03/29 06:47:31;;;;;;;2.00;0.40;;;9.00;94.20;;;;;;5034538;28;20400;-79
2024/03/29 06:49:57;;;;;;;1.30;0.30;;;9.10;94.40;;;;;;5033327;28;20041;-80
2024/03/29 06:52:22;;;;;;;3.20;0.30;;;9.10;94.50;;;;;;5034791;28;20052;-80
2024/03/29 06:54:48;;;;;;;1.27;0.40;;;9.10;94.60;;;;;;5034413;28;20105;-80
2024/03/29 06:57:17;;;;;;;1.10;0.40;;;9.10;94.50;;;;;;5035783;28;20022;-80
2024/03/29 06:59:42;;;;;;;2.40;0.40;;;9.10;94.50;;;;;;5034416;28;20116;-80
2024/03/29 07:02:10;;;;;;;1.10;0.30;;;9.10;94.60;;;;;;5029813;28;20104;-80
2024/03/29 07:04:35;;;;;;;3.33;0.50;;;9.10;94.70;;;;;;5028694;28;20533;-80
2024/03/29 07:07:01;;;;;;;2.17;0.40;;;9.10;94.80;;;;;;5028664;28;20112;-80
2024/03/29 07:09:26;;;;;;;2.67;0.30;;;9.10;94.90;;;;;;5028187;28;20056;-80
2024/03/29 07:11:52;;;;;;;3.53;0.50;;;9.00;94.90;;;;;;5039102;28;20028;-79
2024/03/29 07:14:18;;;;;;;3.20;0.50;;;9.10;95.10;;;;;;5054681;28;20052;-80
2024/03/29 07:16:44;;;;;;;2.40;0.33;;;9.20;95.20;;;;;;5054151;28;20029;-80
2024/03/29 07:19:15;;;;;;;4.13;0.93;;;9.20;95.30;;;;;;5054393;28;20037;-81
2024/03/29 07:21:45;;;;;;;2.33;0.40;;;9.20;95.30;;;;;;5032691;28;20501;-80
2024/03/29 07:24:11;;;;;;;1.93;0.50;;;9.20;95.40;;;;;;5047694;28;20024;-81
2024/03/29 07:26:37;;;;;;;1.47;0.40;;;9.20;95.60;;;;;;5033844;28;20068;-80
2024/03/29 07:29:05;;;;;;;1.20;0.50;;;9.20;95.70;;;;;;5033477;28;20034;-80
2024/03/29 07:31:30;;;;;;;2.77;0.47;;;9.30;95.90;;;;;;5031094;28;20026;-79
2024/03/29 07:33:56;;;;;;;2.57;0.50;;;9.30;96.00;;;;;;5031828;28;20064;-81
2024/03/29 07:36:25;;;;;;;1.20;0.30;;;9.30;96.20;;;;;;5033116;28;20022;-81
2024/03/29 07:38:51;;;;;;;1.67;0.43;;;9.40;96.20;;;;;;5033450;28;20072;-79
2024/03/29 07:41:16;;;;;;;3.00;0.50;;;9.40;96.40;;;;;;5032608;28;20033;-80
2024/03/29 07:43:59;;;;;;;4.20;1.07;;;9.40;96.50;;;;;;5032222;28;20020;-80
2024/03/29 07:46:28;;;;;;;1.47;0.47;;;9.40;96.60;;;;;;5032441;28;20398;-80
2024/03/29 07:48:53;;;;;;;4.20;1.03;;;9.50;96.70;;;;;;5033794;28;20112;-80
2024/03/29 07:51:19;;;;;;;4.30;0.50;;;9.40;96.80;;;;;;5033416;28;20077;-79
2024/03/29 07:53:45;;;;;;;4.80;0.50;;;9.40;96.70;;;;;;5033381;28;20112;-81
2024/03/29 07:56:10;;;;;;;2.53;0.50;;;9.50;97.00;;;;;;5033616;28;20095;-81
2024/03/29 07:58:36;;;;;;;2.93;0.40;;;9.40;96.90;;;;;;5034041;28;20026;-80
2024/03/29 08:01:01;;;;;;;2.83;0.40;;;9.50;97.30;;;;;;5033520;28;20488;-81
2024/03/29 08:03:27;;;;;;;2.37;0.40;;;9.40;97.00;;;;;;5032024;28;20017;-80
2024/03/29 08:06:04;;;;;;;3.13;0.50;;;9.50;97.40;;;;;;5033535;28;20381;-80
2024/03/29 08:08:33;;;;;;;2.67;0.40;;;9.50;97.30;;;;;;5032053;28;20026;-81
2024/03/29 08:10:59;;;;;;;3.30;0.43;;;9.50;97.30;;;;;;5016055;28;20029;-80
2024/03/29 08:13:26;;;;;;;3.47;0.47;;;9.50;97.40;;;;;;5033394;28;20466;-80
2024/03/29 08:16:03;;;;;;;2.63;0.60;;;9.50;97.50;;;;;;5032607;28;20021;-80
2024/03/29 08:18:30;;;;;;;1.00;0.40;;;9.60;97.60;;;;;;5032931;28;20041;-81
2024/03/29 08:20:55;;;;;;;2.57;0.50;;;9.50;97.70;;;;;;5033625;28;20079;-79
2024/03/29 08:23:22;;;;;;;3.17;0.70;;;9.50;97.80;;;;;;5033527;28;20021;-78
2024/03/29 08:25:49;;;;;;;3.50;0.63;;;9.50;97.90;;;;;;5033233;28;20021;-79
2024/03/29 08:28:15;;;;;;;2.27;0.60;;;9.50;97.90;;;;;;5033273;28;20051;-78
2024/03/29 08:30:41;;;;;;;4.27;0.63;;;9.60;98.00;;;;;;5032691;28;20515;-79
2024/03/29 08:33:07;;;;;;;2.33;0.50;;;9.60;98.00;;;;;;5033453;28;20017;-79
2024/03/29 08:35:33;;;;;;;4.67;0.67;;;9.60;98.20;;;;;;5033938;28;20044;-79
2024/03/29 08:38:01;;;;;;;2.70;0.60;;;9.70;98.40;;;;;;5031722;28;20025;-78
2024/03/29 08:40:31;;;;;;;1.93;0.43;;;9.70;98.50;;;;;;5031989;28;20445;-80
2024/03/29 08:42:57;;;;;;;2.03;0.40;;;9.80;98.70;;;;;;5031810;28;20033;-80
2024/03/29 08:45:23;;;;;;;2.53;0.50;;;9.90;98.90;;;;;;5031825;28;20033;-81
2024/03/29 08:47:49;;;;;;;1.15;0.43;;;9.90;99.00;;;;;;5032757;28;20053;-81
2024/03/29 08:50:15;;;;;;;2.43;0.37;;;10.00;99.20;;;;;;5032711;28;20029;-83
2024/03/29 08:52:41;;;;;;;3.75;0.60;;;10.10;99.50;;;;;;5032493;28;20029;-80
2024/03/29 08:55:07;;;;;;;2.55;0.50;;;10.30;99.70;;;;;;5031370;28;20025;-80
2024/03/29 08:57:34;;;;;;;2.90;0.40;;;10.40;99.90;;;;;;5032576;28;20496;-79
2024/03/29 08:59:59;;;;;;;1.73;0.47;;;10.50;99.90;;;;;;5032557;28;20029;-80
2024/03/29 09:02:26;;;;;;;1.52;0.55;;;10.70;99.90;;;;;;5032719;28;20022;-80
2024/03/29 09:04:53;;;;;;;1.35;0.40;;;10.80;99.90;;;;;;5035275;28;20028;-80
2024/03/29 09:07:18;;;;;;;2.53;0.40;;;10.90;99.90;;;;;;5036382;28;20029;-80
2024/03/29 09:09:44;;;;;;;1.00;0.40;;;11.00;99.80;;;;;;5036709;28;20126;-80
2024/03/29 09:12:10;;;;;;;2.88;0.47;;;11.00;99.90;;;;;;5035298;28;20111;-80
2024/03/29 09:14:36;;;;;;;1.17;0.40;;;11.10;99.60;;;;;;5035490;28;20076;-80
2024/03/29 09:17:02;;;;;;;1.58;0.40;;;11.10;99.60;;;;;;5036914;28;20024;-80
2024/03/29 09:19:30;;;;;;;2.38;0.40;;;11.30;99.60;;;;;;5036669;28;20029;-80
2024/03/29 09:21:56;;;;;;;1.42;0.40;;;11.40;99.50;;;;;;5036040;28;20068;-80
2024/03/29 09:24:22;;;;;;;2.53;0.40;;;11.40;99.30;;;;;;5036613;28;20025;-80
2024/03/29 09:26:51;;;;;;;1.02;0.40;;;11.50;99.10;;;;;;5036724;28;20048;-79
2024/03/29 09:29:20;;;;;;;1.67;0.40;;;11.60;99.30;;;;;;5035631;28;20030;-81
2024/03/29 09:31:45;;;;;;;1.80;0.50;;;11.60;98.80;;;;;;5036298;28;20067;-80
2024/03/29 09:34:11;;;;;;;2.40;0.40;;;11.70;98.60;;;;;;5037564;28;20412;-81
2024/03/29 09:36:37;;;;;;;1.23;0.47;;;11.70;98.40;;;;;;5034613;28;20468;-81
2024/03/29 09:39:04;;;;;;;1.85;0.50;;;11.70;98.20;;;;;;5036433;28;20025;-81
2024/03/29 09:41:34;;;;;;;2.30;0.52;;;11.80;98.10;;;;;;5036160;28;20017;-81
2024/03/29 09:44:02;;;;;;;4.82;0.60;;;11.80;98.00;;;;;;5036146;28;20055;-81
2024/03/29 09:46:29;;;;;;;2.42;0.45;;;11.90;97.80;;;;;;5035936;28;20048;-81
2024/03/29 09:48:58;;;;;;;2.28;0.50;;;12.00;97.60;;;;;;5035941;28;20508;-80
2024/03/29 09:51:25;;;;;;;3.63;0.60;;;12.00;97.30;;;;;;5034414;28;20070;-81
2024/03/29 09:53:51;;;;;;;3.45;0.60;;;12.10;96.90;;;;;;5036208;28;20387;-81
2024/03/29 09:56:17;;;;;;;1.63;0.55;;;12.30;96.90;;;;;;5035970;28;20021;-82
2024/03/29 09:58:43;;;;;;;2.00;0.50;;;12.40;96.60;;;;;;5035802;28;20017;-82
2024/03/29 10:01:10;;;;;;;2.72;0.60;;;12.60;95.90;;;;;;5036371;28;20486;-81
2024/03/29 10:03:39;;;;;;;1.75;0.40;;;12.70;95.80;;;;;;5036048;28;20017;-82
2024/03/29 10:06:08;;;;;;;1.38;0.55;;;12.70;94.90;;;;;;5036022;28;20482;-82
2024/03/29 10:08:34;;;;;;;4.55;0.60;;;12.80;94.50;;;;;;5035869;28;20477;-83
2024/03/29 10:11:00;;;;;;;1.58;0.43;;;12.80;94.40;;;;;;5034719;28;20025;-84
2024/03/29 10:13:26;;;;;;;3.85;0.75;;;12.90;94.00;;;;;;5034582;28;20052;-84
2024/03/29 10:15:56;;;;;;;1.67;0.43;;;12.90;93.60;;;;;;5036420;28;20030;-83
2024/03/29 10:18:30;;;;;;;2.75;0.40;;;13.00;93.50;;;;;;5036539;28;20055;-85
2024/03/29 10:21:07;;;;;;;2.08;0.68;;;13.10;93.60;;;;;;5036709;28;20052;-85
2024/03/29 10:23:35;;;;;;;2.28;0.30;;;13.10;93.30;;;;;;5035139;28;20076;-84
2024/03/29 10:26:03;;;;;;;3.13;0.60;;;13.30;93.30;;;;;;5034917;28;20025;-86
2024/03/29 10:28:36;;;;;;;1.85;0.60;;;13.30;93.00;;;;;;5031560;28;20431;-84
2024/03/29 10:31:03;;;;;;;2.47;0.55;;;13.50;92.20;;;;;;5033805;28;20033;-84
2024/03/29 10:33:30;;;;;;;1.83;0.50;;;13.60;92.30;;;;;;5033943;28;20037;-86
2024/03/29 10:35:58;;;;;;;0.95;0.45;;;13.80;92.20;;;;;;5034881;28;20029;-86
2024/03/29 10:38:26;;;;;;;2.35;0.47;;;14.00;92.30;;;;;;5034613;28;20018;-83
2024/03/29 10:40:52;;;;;;;2.03;0.40;;;14.10;92.20;;;;;;5035887;28;20017;-84
2024/03/29 10:43:19;;;;;;;2.47;0.60;;;14.30;92.10;;;;;;5034760;28;20397;-84
2024/03/29 10:45:55;;;;;;;2.17;0.30;;;14.60;92.00;;;;;;5031762;28;20029;-85
2024/03/29 10:48:22;;;;;;;1.73;0.40;;;15.20;92.60;;;;;;5034330;28;20036;-82
2024/03/29 10:50:51;;;;;;;2.08;0.55;;;15.70;91.70;;;;;;5034618;28;20025;-85
2024/03/29 10:53:17;;;;;;;0.73;0.40;;;16.20;91.10;;;;;;5034528;28;20064;-85
2024/03/29 10:55:43;;;;;;;3.42;0.60;;;16.60;91.10;;;;;;5034105;28;20067;-85
2024/03/29 10:58:14;;;;;;;2.03;0.50;;;17.00;89.20;;;;;;5034627;28;20022;-86
2024/03/29 11:00:49;;;;;;;2.15;0.50;;;17.30;87.30;;;;;;5033760;28;20473;-85
2024/03/29 11:03:36;;;;;;;3.08;0.50;;;17.50;85.70;;;;;;5048277;28;20032;-84
2024/03/29 11:06:04;;;;;;;3.75;0.50;;;17.50;79.20;;;;;;5031833;28;20534;-84
2024/03/29 11:08:38;;;;;;;2.65;0.40;;;17.50;79.20;;;;;;5034183;28;20028;-85
2024/03/29 11:11:05;;;;;;;2.42;0.55;;;17.50;78.40;;;;;;5033930;28;20013;-85
2024/03/29 11:13:40;;;;;;;2.20;0.60;;;17.40;76.90;;;;;;5034544;28;20032;-85
2024/03/29 11:16:07;;;;;;;1.65;0.50;;;17.30;76.90;;;;;;5034457;28;20026;-85
2024/03/29 11:18:34;;;;;;;3.10;0.50;;;17.60;77.60;;;;;;5034284;28;20037;-84
2024/03/29 11:21:00;;;;;;;1.83;0.60;;;18.00;76.40;;;;;;5036286;28;20025;-83
2024/03/29 11:23:27;;;;;;;1.92;0.43;;;18.10;75.70;;;;;;5035675;28;20026;-84
2024/03/29 11:25:55;;;;;;;2.00;0.43;;;18.30;75.30;;;;;;5034843;28;20030;-84
2024/03/29 11:28:31;;;;;;;1.23;0.43;;;18.40;72.50;;;;;;5034336;28;20040;-84
2024/03/29 11:31:07;;;;;;;1.52;0.43;;;18.30;72.00;;;;;;5045155;28;20021;-85
2024/03/29 11:33:34;;;;;;;2.72;0.47;;;18.30;71.90;;;;;;5054882;28;20021;-86
2024/03/29 11:36:12;;;;;;;2.72;0.50;;;18.20;71.00;;;;;;5054107;28;20381;-86
2024/03/29 11:38:39;;;;;;;1.60;0.40;;;18.10;71.10;;;;;;5054750;28;20111;-83
2024/03/29 11:41:10;;;;;;;0.88;0.30;;;18.40;71.60;;;;;;5053223;28;20060;-85
2024/03/29 11:43:37;;;;;;;1.08;0.38;;;18.50;69.30;;;;;;5052437;28;20103;-84
2024/03/29 11:46:06;;;;;;;3.92;0.73;;;18.40;69.10;;;;;;5053331;28;20064;-84
2024/03/29 11:48:31;;;;;;;1.25;0.52;;;18.10;68.20;;;;;;5035319;28;20113;-84
2024/03/29 11:50:58;;;;;;;0.93;0.40;;;17.90;68.10;;;;;;5032940;28;20104;-84
2024/03/29 11:53:24;;;;;;;3.10;0.50;;;17.80;69.00;;;;;;5033633;28;20048;-83
2024/03/29 11:55:53;;;;;;;1.40;0.50;;;17.90;69.30;;;;;;5032949;28;20013;-83
2024/03/29 11:58:29;;;;;;;1.13;0.30;;;18.00;69.40;;;;;;5033812;28;20036;-82
2024/03/29 12:00:56;;;;;;;1.48;0.55;;;18.40;69.80;;;;;;5033447;28;20029;-84
2024/03/29 12:03:27;;;;;;;2.47;0.50;;;18.70;68.40;;;;;;5031577;28;20032;-82
2024/03/29 12:06:02;;;;;;;1.60;0.45;;;18.90;67.80;;;;;;5032448;28;20047;-85
2024/03/29 12:08:37;;;;;;;1.08;0.50;;;19.00;65.70;;;;;;5032576;28;20079;-85
2024/03/29 12:11:04;;;;;;;0.73;0.30;;;19.00;65.50;;;;;;5032612;28;20026;-85
2024/03/29 12:13:33;;;;;;;1.73;0.40;;;19.10;65.30;;;;;;5032945;28;20083;-84
2024/03/29 12:15:59;;;;;;;1.30;0.40;;;19.30;65.10;;;;;;5034104;28;20028;-86
2024/03/29 12:18:27;;;;;;;1.05;0.30;;;19.50;64.40;;;;;;5034270;28;20104;-86
2024/03/29 12:20:54;;;;;;;1.40;0.40;;;19.60;63.70;;;;;;5032249;28;20026;-85
2024/03/29 12:23:21;;;;;;;2.05;0.30;;;19.60;63.10;;;;;;5033756;28;20477;-86
2024/03/29 12:25:50;;;;;;;2.45;0.50;;;19.70;62.50;;;;;;5033706;28;20034;-86
2024/03/29 12:28:16;;;;;;;1.10;0.30;;;19.60;61.80;;;;;;5033585;28;20044;-85
2024/03/29 12:30:44;;;;;;;1.17;0.38;;;19.80;62.00;;;;;;5031672;28;20083;-83
2024/03/29 12:33:20;;;;;;;0.40;0.20;;;19.90;61.20;;;;;;5032056;28;20053;-86
2024/03/29 12:35:54;;;;;;;1.23;0.40;;;20.10;60.00;;;;;;5033439;28;20021;-86
2024/03/29 12:38:21;;;;;;;1.20;0.30;;;20.10;59.70;;;;;;5033198;28;20033;-86
2024/03/29 12:40:49;;;;;;;1.02;0.30;;;19.90;59.00;;;;;;5032414;28;20018;-84
2024/03/29 12:43:20;;;;;;;0.90;0.30;;;19.60;58.80;;;;;;5033271;28;20034;-85
2024/03/29 12:45:46;;;;;;;1.50;0.50;;;19.50;59.80;;;;;;5033688;28;20478;-84
2024/03/29 12:48:15;;;;;;;3.17;0.50;;;19.50;59.50;;;;;;5031722;28;20033;-85
2024/03/29 12:50:42;;;;;;;1.45;0.40;;;19.50;59.70;;;;;;5032049;28;20125;-85
2024/03/29 12:53:11;;;;;;;3.97;0.45;;;19.50;59.60;;;;;;5033060;28;20028;-85
2024/03/29 12:55:39;;;;;;;1.63;0.30;;;19.40;59.50;;;;;;5032888;28;20036;-86
2024/03/29 12:58:07;;;;;;;0.98;0.30;;;19.40;59.70;;;;;;5032964;28;20036;-84
2024/03/29 13:00:34;;;;;;;1.30;0.50;;;19.50;59.30;;;;;;5032535;28;20462;-85